createdAt,value
2022-08-25T00:01:46.138Z,1.30
2022-08-25T00:04:16.147Z,1.20
2022-08-25T00:06:46.757Z,1.65
2022-08-25T00:09:16.413Z,1.25
2022-08-25T00:11:45.370Z,1.38
2022-08-25T00:14:16.726Z,1.30
2022-08-25T00:16:45.533Z,1.58
2022-08-25T00:19:15.763Z,1.27
2022-08-25T00:21:44.713Z,1.23
2022-08-25T00:24:13.780Z,1.10
2022-08-25T00:26:43.075Z,1.40
2022-08-25T00:29:12.625Z,1.30
2022-08-25T00:31:42.628Z,1.30
2022-08-25T00:34:12.291Z,1.10
2022-08-25T00:36:41.262Z,1.33
2022-08-25T00:39:10.241Z,1.23
2022-08-25T00:41:39.482Z,1.33
2022-08-25T00:44:09.539Z,1.33
2022-08-25T00:46:39.428Z,1.30
2022-08-25T00:49:16.380Z,1.20
2022-08-25T00:51:55.738Z,1.07
2022-08-25T00:54:27.301Z,1.30
2022-08-25T00:56:56.689Z,1.33
2022-08-25T00:59:26.399Z,1.05
2022-08-25T01:01:55.482Z,1.42
2022-08-25T01:04:25.512Z,1.40
2022-08-25T01:06:55.752Z,1.10
2022-08-25T01:09:24.419Z,1.35
2022-08-25T01:11:52.942Z,1.35
2022-08-25T01:14:22.065Z,1.08
2022-08-25T01:16:51.210Z,1.33
2022-08-25T01:19:23.089Z,1.52
2022-08-25T01:21:54.568Z,1.27
2022-08-25T01:24:25.770Z,1.50
2022-08-25T01:26:54.322Z,1.42
2022-08-25T01:29:22.861Z,1.30
2022-08-25T01:31:52.070Z,1.38
2022-08-25T01:34:21.403Z,1.50
2022-08-25T01:36:49.892Z,1.20
2022-08-25T01:39:20.094Z,1.30
2022-08-25T01:41:55.889Z,1.60
2022-08-25T01:44:24.998Z,1.25
2022-08-25T01:46:54.606Z,1.20
2022-08-25T01:49:23.450Z,1.20
2022-08-25T01:51:54.061Z,1.20
2022-08-25T01:54:23.897Z,1.40
2022-08-25T01:56:52.344Z,1.30
2022-08-25T01:59:23.976Z,1.45
2022-08-25T02:01:58.695Z,1.48
2022-08-25T02:04:29.561Z,1.40
2022-08-25T02:06:58.021Z,1.10
2022-08-25T02:09:28.062Z,1.30
2022-08-25T02:11:56.917Z,1.15
2022-08-25T02:14:25.964Z,1.23
2022-08-25T02:16:55.220Z,1.27
2022-08-25T02:19:25.893Z,1.20
2022-08-25T02:21:54.715Z,1.30
2022-08-25T02:24:23.253Z,1.73
2022-08-25T02:26:53.050Z,1.40
2022-08-25T02:29:21.519Z,1.93
2022-08-25T02:31:49.965Z,2.10
2022-08-25T02:34:18.494Z,1.80
2022-08-25T02:36:46.910Z,2.13
2022-08-25T02:39:15.349Z,1.93
2022-08-25T02:41:43.794Z,1.90
2022-08-25T02:44:13.793Z,2.00
2022-08-25T02:46:42.272Z,1.70
2022-08-25T02:49:10.714Z,1.77
2022-08-25T02:51:39.204Z,2.10
2022-08-25T02:54:07.981Z,2.08
2022-08-25T02:56:36.487Z,1.90
2022-08-25T02:59:05.885Z,1.70
2022-08-25T03:01:35.757Z,2.07
2022-08-25T03:04:04.635Z,2.00
2022-08-25T03:06:33.167Z,1.73
2022-08-25T03:09:01.631Z,1.77
2022-08-25T03:11:31.440Z,1.63
2022-08-25T03:13:59.920Z,2.00
2022-08-25T03:16:28.457Z,1.70
2022-08-25T03:18:58.609Z,1.77
2022-08-25T03:21:29.082Z,1.60
2022-08-25T03:23:57.717Z,1.63
2022-08-25T03:26:43.750Z,1.63
2022-08-25T03:29:13.802Z,1.40
2022-08-25T03:31:43.866Z,1.70
2022-08-25T03:34:13.768Z,1.10
2022-08-25T03:36:42.217Z,1.83
2022-08-25T03:39:11.078Z,1.57
2022-08-25T03:41:39.614Z,1.37
2022-08-25T03:44:09.325Z,2.13
2022-08-25T03:46:39.856Z,1.60
2022-08-25T03:49:09.539Z,1.40
2022-08-25T03:51:41.722Z,1.43
2022-08-25T03:54:11.916Z,1.63
2022-08-25T03:56:40.594Z,1.67
2022-08-25T03:59:10.317Z,1.63
2022-08-25T04:01:39.033Z,1.60
2022-08-25T04:04:08.071Z,1.20
2022-08-25T04:06:36.642Z,1.50
2022-08-25T04:09:06.602Z,1.40
2022-08-25T04:11:34.978Z,1.30
2022-08-25T04:14:04.270Z,1.70
2022-08-25T04:17:03.548Z,1.60
2022-08-25T04:19:32.084Z,1.53
2022-08-25T04:22:00.643Z,1.30
2022-08-25T04:24:30.597Z,1.60
2022-08-25T04:26:59.187Z,1.57
2022-08-25T04:29:28.575Z,1.60
2022-08-25T04:31:57.485Z,1.40
2022-08-25T04:34:29.336Z,1.50
2022-08-25T04:37:00.062Z,1.70
2022-08-25T04:39:30.026Z,1.50
2022-08-25T04:42:00.591Z,1.53
2022-08-25T04:44:29.508Z,1.90
2022-08-25T04:46:58.068Z,1.33
2022-08-25T04:49:26.550Z,1.70
2022-08-25T04:51:56.378Z,1.60
2022-08-25T04:54:24.953Z,1.53
2022-08-25T04:56:58.096Z,1.83
2022-08-25T04:59:29.943Z,1.70
2022-08-25T05:02:02.522Z,1.30
2022-08-25T05:04:31.479Z,1.60
2022-08-25T05:07:00.130Z,1.33
2022-08-25T05:09:28.945Z,1.45
2022-08-25T05:12:03.117Z,1.53
2022-08-25T05:14:31.932Z,1.67
2022-08-25T05:17:00.645Z,1.60
2022-08-25T05:19:29.602Z,1.40
2022-08-25T05:21:58.303Z,1.45
2022-08-25T05:27:50.270Z,1.45
2022-08-25T05:30:18.920Z,2.00
2022-08-25T05:32:47.518Z,1.30
2022-08-25T05:35:16.619Z,1.20
2022-08-25T05:37:45.218Z,1.50
2022-08-25T05:40:13.837Z,1.63
2022-08-25T05:42:42.502Z,1.55
2022-08-25T05:45:16.732Z,1.60
2022-08-25T05:47:49.132Z,1.40
2022-08-25T05:50:17.828Z,1.58
2022-08-25T05:52:46.800Z,1.60
2022-08-25T05:55:15.708Z,1.67
2022-08-25T05:57:44.184Z,1.63
2022-08-25T06:00:14.590Z,1.83
2022-08-25T06:02:44.200Z,1.60
2022-08-25T06:05:13.731Z,1.50
2022-08-25T06:07:42.278Z,1.67
2022-08-25T06:10:13.440Z,1.50
2022-08-25T06:12:44.486Z,1.70
2022-08-25T06:15:15.739Z,1.58
2022-08-25T06:17:44.459Z,1.50
2022-08-25T06:20:14.927Z,1.50
2022-08-25T06:22:43.586Z,1.60
2022-08-25T06:25:13.273Z,1.50
2022-08-25T06:27:42.336Z,1.60
2022-08-25T06:30:12.556Z,1.70
2022-08-25T06:32:47.108Z,1.50
2022-08-25T06:38:38.039Z,1.70
2022-08-25T06:41:06.717Z,1.35
2022-08-25T06:43:36.132Z,1.50
2022-08-25T06:46:10.159Z,1.52
2022-08-25T06:48:40.371Z,1.73
2022-08-25T06:51:09.432Z,1.60
2022-08-25T06:53:42.945Z,1.60
2022-08-25T06:56:16.190Z,1.30
2022-08-25T06:58:44.818Z,1.65
2022-08-25T07:01:15.770Z,1.50
2022-08-25T07:03:49.945Z,1.42
2022-08-25T07:06:21.191Z,1.50
2022-08-25T07:08:50.186Z,1.60
2022-08-25T07:11:19.385Z,1.70
2022-08-25T07:13:48.016Z,1.40
2022-08-25T07:16:17.441Z,1.80
2022-08-25T07:18:46.502Z,1.45
2022-08-25T07:21:17.468Z,1.73
2022-08-25T07:23:48.337Z,1.63
2022-08-25T07:29:07.888Z,1.73
2022-08-25T07:31:37.523Z,1.40
2022-08-25T07:34:24.006Z,1.70
2022-08-25T07:36:55.733Z,1.70
2022-08-25T07:39:24.755Z,1.70
2022-08-25T07:41:53.699Z,2.00
2022-08-25T07:45:13.113Z,2.30
2022-08-25T07:47:42.038Z,1.90
2022-08-25T07:50:12.094Z,1.70
2022-08-25T07:52:42.690Z,2.17
2022-08-25T07:55:12.073Z,1.90
2022-08-25T07:57:48.951Z,1.50
2022-08-25T08:00:22.788Z,1.80
2022-08-25T08:02:53.156Z,1.63
2022-08-25T08:05:24.041Z,1.38
2022-08-25T08:07:54.381Z,1.60
2022-08-25T08:10:54.195Z,1.85
2022-08-25T08:13:14.376Z,1.65
2022-08-25T08:15:46.894Z,1.58
2022-08-25T08:19:09.916Z,1.65
2022-08-25T08:21:39.003Z,1.75
2022-08-25T08:24:19.564Z,1.70
2022-08-25T08:26:59.317Z,1.73
2022-08-25T08:29:28.037Z,1.63
2022-08-25T08:31:56.570Z,1.60
2022-08-25T08:34:25.315Z,1.90
2022-08-25T08:36:56.033Z,1.70
2022-08-25T08:39:26.805Z,1.90
2022-08-25T08:42:18.885Z,2.45
2022-08-25T08:44:52.184Z,1.95
2022-08-25T08:47:26.465Z,1.88
2022-08-25T08:49:58.821Z,2.17
2022-08-25T08:55:53.206Z,2.58
2022-08-25T08:58:26.308Z,2.45
2022-08-25T09:00:58.409Z,2.42
2022-08-25T09:03:33.457Z,2.08
2022-08-25T09:06:04.332Z,2.00
2022-08-25T09:08:35.537Z,2.30
2022-08-25T09:11:10.036Z,2.03
2022-08-25T09:13:42.584Z,2.25
2022-08-25T09:16:34.268Z,2.80
2022-08-25T09:19:09.864Z,2.88
2022-08-25T09:21:42.261Z,2.58
2022-08-25T09:24:17.135Z,1.70
2022-08-25T09:27:32.877Z,1.90
2022-08-25T09:30:06.267Z,2.00
2022-08-25T09:32:37.214Z,1.73
2022-08-25T09:35:06.703Z,2.10
2022-08-25T09:37:35.306Z,1.90
2022-08-25T09:40:04.111Z,1.85
2022-08-25T09:42:49.758Z,1.70
2022-08-25T09:45:32.194Z,1.60
2022-08-25T09:48:00.790Z,1.80
2022-08-25T09:50:35.024Z,2.08
2022-08-25T09:53:17.136Z,1.90
2022-08-25T09:55:48.667Z,1.70
2022-08-25T09:58:20.105Z,1.50
2022-08-25T10:04:20.382Z,1.67
2022-08-25T10:06:49.559Z,1.90
2022-08-25T10:09:29.485Z,1.95
2022-08-25T10:12:01.205Z,1.80
2022-08-25T10:14:35.232Z,1.75
2022-08-25T10:17:15.821Z,1.70
2022-08-25T10:19:45.884Z,1.90
2022-08-25T10:22:22.583Z,1.80
2022-08-25T10:24:51.330Z,1.70
2022-08-25T10:27:24.302Z,1.73
2022-08-25T10:30:07.017Z,1.70
2022-08-25T10:32:42.532Z,2.08
2022-08-25T10:38:38.132Z,1.80
2022-08-25T10:41:17.497Z,2.00
2022-08-25T10:43:48.245Z,1.88
2022-08-25T10:46:18.753Z,1.80
2022-08-25T10:48:57.597Z,1.95
2022-08-25T10:51:33.606Z,1.75
2022-08-25T10:54:07.875Z,1.75
2022-08-25T10:56:40.187Z,1.80
2022-08-25T10:59:14.532Z,1.92
2022-08-25T11:01:56.186Z,1.60
2022-08-25T11:04:27.350Z,2.08
2022-08-25T11:06:58.431Z,1.95
2022-08-25T11:12:53.775Z,1.80
2022-08-25T11:15:25.326Z,2.38
2022-08-25T11:17:56.487Z,2.00
2022-08-25T11:20:28.417Z,2.10
2022-08-25T11:23:06.410Z,2.00
2022-08-25T11:25:37.218Z,2.40
2022-08-25T11:28:10.441Z,2.08
2022-08-25T11:30:40.239Z,1.75
2022-08-25T11:33:09.750Z,2.00
2022-08-25T11:35:41.179Z,1.80
2022-08-25T11:38:20.768Z,2.22
2022-08-25T11:40:56.828Z,2.30
2022-08-25T11:43:35.770Z,2.15
2022-08-25T11:46:11.016Z,2.10
2022-08-25T11:48:43.656Z,1.92
2022-08-25T11:51:12.948Z,1.90
2022-08-25T11:53:42.476Z,1.98
2022-08-25T11:56:12.658Z,1.85
2022-08-25T11:58:44.556Z,2.03
2022-08-25T12:01:42.733Z,2.00
2022-08-25T12:04:15.306Z,2.28
2022-08-25T12:07:02.440Z,1.90
2022-08-25T12:09:31.353Z,2.22
2022-08-25T12:11:59.895Z,1.80
2022-08-25T12:14:49.472Z,2.10
2022-08-25T12:17:23.263Z,2.03
2022-08-25T12:19:53.643Z,2.03
2022-08-25T12:22:40.595Z,2.03
2022-08-25T12:25:11.755Z,2.10
2022-08-25T12:27:43.722Z,1.85
2022-08-25T12:30:20.736Z,2.10
2022-08-25T12:32:57.359Z,2.38
2022-08-25T12:35:40.413Z,2.42
2022-08-25T12:38:13.760Z,3.67
2022-08-25T12:40:56.185Z,2.22
2022-08-25T12:43:26.853Z,1.92
2022-08-25T12:46:17.296Z,2.10
2022-08-25T12:48:57.210Z,1.80
2022-08-25T12:51:27.656Z,2.13
2022-08-25T12:53:59.336Z,2.17
2022-08-25T12:56:29.849Z,2.20
2022-08-25T12:59:05.019Z,2.10
2022-08-25T13:01:42.474Z,2.10
2022-08-25T13:04:20.003Z,1.98
2022-08-25T13:07:04.500Z,1.90
2022-08-25T13:09:51.338Z,2.13
2022-08-25T13:12:21.366Z,2.20
2022-08-25T13:14:54.978Z,1.80
2022-08-25T13:17:28.981Z,2.30
2022-08-25T13:20:12.505Z,2.25
2022-08-25T13:22:41.270Z,1.90
2022-08-25T13:25:17.767Z,2.20
2022-08-25T13:27:51.004Z,1.95
2022-08-25T13:30:25.375Z,1.88
2022-08-25T13:32:55.396Z,2.05
2022-08-25T13:35:30.327Z,2.15
2022-08-25T13:38:13.149Z,2.25
2022-08-25T13:40:43.296Z,2.28
2022-08-25T13:43:14.338Z,2.30
2022-08-25T13:45:45.172Z,1.88
2022-08-25T13:48:23.132Z,2.00
2022-08-25T13:50:54.668Z,2.20
2022-08-25T13:53:25.341Z,1.75
2022-08-25T13:55:57.137Z,1.95
2022-08-25T13:58:38.638Z,2.03
2022-08-25T14:01:23.194Z,2.42
2022-08-25T14:04:20.696Z,1.83
2022-08-25T14:06:49.560Z,2.20
2022-08-25T14:09:27.971Z,2.28
2022-08-25T14:11:58.185Z,1.90
2022-08-25T14:14:34.979Z,2.60
2022-08-25T14:17:16.338Z,2.20
2022-08-25T14:19:52.122Z,2.30
2022-08-25T14:22:20.643Z,1.98
2022-08-25T14:24:49.212Z,2.10
2022-08-25T14:27:19.191Z,2.10
2022-08-25T14:29:52.265Z,1.95
2022-08-25T14:32:21.528Z,1.80
2022-08-25T14:34:50.168Z,2.22
2022-08-25T14:37:20.964Z,2.25
2022-08-25T14:39:54.867Z,1.90
2022-08-25T14:42:25.339Z,2.25
2022-08-25T14:44:54.904Z,2.25
2022-08-25T14:47:24.952Z,2.13
2022-08-25T14:49:53.562Z,2.33
2022-08-25T14:52:26.714Z,2.42
2022-08-25T14:54:57.060Z,2.30
2022-08-25T14:57:25.676Z,2.28
2022-08-25T14:59:54.611Z,2.10
2022-08-25T15:02:29.488Z,1.75
2022-08-25T15:05:00.286Z,2.30
2022-08-25T15:07:51.345Z,2.33
2022-08-25T15:10:21.802Z,2.50
2022-08-25T15:12:54.127Z,2.40
2022-08-25T15:15:26.464Z,2.30
2022-08-25T15:17:55.318Z,2.30
2022-08-25T15:20:27.955Z,2.28
2022-08-25T15:22:59.177Z,2.47
2022-08-25T15:25:27.747Z,1.98
2022-08-25T15:27:58.832Z,2.25
2022-08-25T15:30:30.662Z,1.95
2022-08-25T15:32:59.938Z,2.38
2022-08-25T15:35:29.233Z,2.15
2022-08-25T15:37:59.375Z,2.15
2022-08-25T15:40:28.471Z,2.20
2022-08-25T15:42:57.648Z,2.30
2022-08-25T15:45:27.381Z,1.77
2022-08-25T15:47:56.642Z,2.10
2022-08-25T15:50:26.930Z,2.20
2022-08-25T15:52:55.793Z,2.47
2022-08-25T15:55:27.536Z,2.20
2022-08-25T15:57:57.323Z,1.83
2022-08-25T16:00:26.178Z,2.10
2022-08-25T16:02:54.734Z,2.25
2022-08-25T16:05:25.906Z,2.10
2022-08-25T16:07:54.621Z,2.40
2022-08-25T16:10:23.884Z,2.22
2022-08-25T16:12:55.188Z,2.10
2022-08-25T16:15:28.744Z,2.13
2022-08-25T16:17:57.681Z,2.42
2022-08-25T16:20:26.329Z,2.00
2022-08-25T16:22:54.943Z,2.10
2022-08-25T16:25:24.041Z,2.58
2022-08-25T16:27:52.585Z,2.10
2022-08-25T16:30:22.510Z,2.38
2022-08-25T16:32:51.086Z,2.40
2022-08-25T16:35:19.837Z,2.20
2022-08-25T16:37:50.499Z,2.30
2022-08-25T16:40:22.808Z,2.22
2022-08-25T16:42:51.799Z,2.08
2022-08-25T16:45:20.392Z,2.30
2022-08-25T16:47:50.408Z,2.00
2022-08-25T16:50:19.055Z,2.10
2022-08-25T16:53:07.825Z,2.10
2022-08-25T16:55:39.389Z,2.55
2022-08-25T16:58:08.801Z,2.10
2022-08-25T17:00:43.918Z,2.10
2022-08-25T17:03:14.841Z,2.20
2022-08-25T17:05:45.353Z,2.00
2022-08-25T17:08:29.343Z,1.98
2022-08-25T17:11:06.002Z,1.92
2022-08-25T17:13:35.700Z,2.03
2022-08-25T17:16:04.856Z,2.40
2022-08-25T17:18:34.861Z,2.10
2022-08-25T17:21:04.384Z,2.00
2022-08-25T17:23:33.212Z,2.00
2022-08-25T17:26:02.800Z,1.55
2022-08-25T17:28:33.678Z,2.25
2022-08-25T17:31:02.164Z,2.00
2022-08-25T17:33:30.986Z,2.30
2022-08-25T17:36:01.640Z,2.08
2022-08-25T17:38:33.230Z,2.25
2022-08-25T17:41:02.909Z,2.15
2022-08-25T17:43:33.912Z,2.58
2022-08-25T17:46:02.686Z,2.10
2022-08-25T17:48:33.100Z,2.10
2022-08-25T17:51:03.845Z,1.95
2022-08-25T17:53:32.695Z,2.25
2022-08-25T17:56:02.040Z,2.38
2022-08-25T17:58:30.776Z,2.20
2022-08-25T18:00:59.813Z,2.20
2022-08-25T18:03:28.693Z,2.20
2022-08-25T18:05:57.235Z,2.75
2022-08-25T18:08:32.255Z,2.30
2022-08-25T18:11:04.746Z,2.03
2022-08-25T18:13:33.258Z,2.20
2022-08-25T18:16:01.744Z,2.20
2022-08-25T18:18:31.340Z,2.25
2022-08-25T18:20:59.775Z,2.30
2022-08-25T18:23:29.866Z,2.10
2022-08-25T18:26:00.684Z,2.20
2022-08-25T18:28:29.923Z,2.20
2022-08-25T18:30:58.894Z,2.08
2022-08-25T18:33:29.913Z,2.28
2022-08-25T18:35:59.012Z,2.15
2022-08-25T18:38:44.895Z,2.80
2022-08-25T18:41:15.317Z,2.33
2022-08-25T18:43:44.499Z,2.30
2022-08-25T18:46:12.982Z,2.10
2022-08-25T18:48:41.683Z,2.58
2022-08-25T18:51:10.527Z,2.55
2022-08-25T18:53:50.411Z,2.33
2022-08-25T18:56:22.443Z,2.40
2022-08-25T18:58:50.997Z,2.60
2022-08-25T19:01:20.611Z,2.67
2022-08-25T19:03:50.314Z,2.58
2022-08-25T19:06:19.148Z,2.22
2022-08-25T19:08:47.908Z,2.40
2022-08-25T19:11:17.099Z,2.42
2022-08-25T19:13:52.265Z,2.30
2022-08-25T19:16:31.522Z,2.50
2022-08-25T19:19:02.457Z,1.98
2022-08-25T19:21:32.193Z,2.20
2022-08-25T19:24:03.215Z,2.65
2022-08-25T19:26:33.259Z,2.28
2022-08-25T19:29:03.121Z,2.50
2022-08-25T19:31:33.273Z,2.17
2022-08-25T19:34:02.462Z,2.20
2022-08-25T19:36:32.242Z,2.20
2022-08-25T19:39:02.395Z,2.30
2022-08-25T19:41:32.992Z,2.45
2022-08-25T19:44:03.201Z,2.20
2022-08-25T19:46:35.640Z,2.00
2022-08-25T19:49:07.928Z,2.25
2022-08-25T19:51:37.409Z,2.28
2022-08-25T19:54:06.557Z,2.30
2022-08-25T19:56:37.775Z,2.63
2022-08-25T19:59:24.710Z,2.30
2022-08-25T20:01:53.230Z,2.40
2022-08-25T20:04:24.184Z,2.40
2022-08-25T20:06:53.064Z,2.42
2022-08-25T20:09:38.603Z,2.30
2022-08-25T20:12:09.019Z,2.15
2022-08-25T20:14:38.982Z,2.08
2022-08-25T20:17:23.233Z,2.20
2022-08-25T20:19:54.194Z,2.42
2022-08-25T20:22:26.284Z,2.50
2022-08-25T20:24:55.850Z,2.17
2022-08-25T20:27:27.919Z,2.38
2022-08-25T20:29:57.836Z,2.30
2022-08-25T20:32:26.495Z,2.53
2022-08-25T20:34:57.811Z,2.40
2022-08-25T20:37:26.565Z,2.53
2022-08-25T20:39:55.361Z,2.30
2022-08-25T20:42:23.912Z,2.40
2022-08-25T20:44:53.761Z,2.35
2022-08-25T20:47:23.596Z,2.30
2022-08-25T20:49:52.100Z,2.10
2022-08-25T20:52:21.361Z,2.28
2022-08-25T20:54:51.166Z,2.20
2022-08-25T20:57:24.535Z,2.28
2022-08-25T20:59:55.332Z,2.35
2022-08-25T21:02:25.799Z,2.40
2022-08-25T21:04:54.838Z,2.20
2022-08-25T21:07:25.835Z,2.00
2022-08-25T21:09:54.591Z,2.33
2022-08-25T21:12:23.903Z,2.33
2022-08-25T21:14:52.809Z,2.20
2022-08-25T21:17:21.259Z,2.22
2022-08-25T21:19:51.713Z,1.92
2022-08-25T21:22:20.174Z,2.20
2022-08-25T21:24:48.625Z,2.10
2022-08-25T21:27:17.065Z,2.38
2022-08-25T21:29:54.698Z,2.10
2022-08-25T21:32:23.762Z,2.30
2022-08-25T21:34:54.455Z,2.17
2022-08-25T21:37:23.308Z,2.38
2022-08-25T21:39:51.877Z,2.20
2022-08-25T21:42:20.509Z,1.98
2022-08-25T21:44:50.608Z,2.38
2022-08-25T21:47:20.856Z,2.30
2022-08-25T21:49:49.930Z,2.40
2022-08-25T21:52:20.820Z,2.20
2022-08-25T21:54:49.374Z,2.28
2022-08-25T21:57:23.630Z,2.50
2022-08-25T21:59:52.384Z,2.20
2022-08-25T22:02:23.146Z,2.60
2022-08-25T22:04:53.474Z,2.50
2022-08-25T22:07:24.514Z,2.53
2022-08-25T22:09:53.313Z,2.40
2022-08-25T22:12:21.861Z,2.25
2022-08-25T22:14:50.340Z,2.20
2022-08-25T22:17:24.316Z,2.40
2022-08-25T22:19:53.863Z,2.30
2022-08-25T22:22:24.063Z,2.53
2022-08-25T22:24:55.853Z,2.10
2022-08-25T22:27:25.381Z,2.47
2022-08-25T22:29:54.039Z,2.20
2022-08-25T22:32:22.593Z,2.10
2022-08-25T22:34:51.221Z,2.65
2022-08-25T22:37:19.786Z,2.20
2022-08-25T22:39:49.739Z,2.20
2022-08-25T22:42:18.720Z,2.15
2022-08-25T22:44:55.081Z,2.40
2022-08-25T22:47:23.510Z,2.70
2022-08-25T22:49:53.288Z,2.47
2022-08-25T22:52:21.793Z,2.10
2022-08-25T22:55:03.872Z,2.28
2022-08-25T22:57:32.420Z,2.10
2022-08-25T23:00:00.851Z,2.30
2022-08-25T23:02:30.157Z,2.17
2022-08-25T23:05:00.828Z,1.98
2022-08-25T23:07:29.854Z,2.33
2022-08-25T23:10:02.621Z,2.10
2022-08-25T23:12:32.553Z,2.70
2022-08-25T23:15:01.350Z,2.40
2022-08-25T23:17:31.643Z,2.25
2022-08-25T23:20:00.101Z,2.20
2022-08-25T23:22:28.234Z,2.05
2022-08-25T23:24:56.787Z,2.40
2022-08-25T23:27:25.544Z,2.47
2022-08-25T23:29:55.343Z,2.03
2022-08-25T23:32:25.700Z,2.22
2022-08-25T23:34:56.740Z,2.42
2022-08-25T23:37:25.207Z,2.13
2022-08-25T23:39:55.087Z,1.83
2022-08-25T23:42:23.626Z,1.98
2022-08-25T23:44:52.590Z,2.15
2022-08-25T23:47:22.485Z,2.67
2022-08-25T23:49:51.191Z,1.92
2022-08-25T23:52:19.797Z,2.22
2022-08-25T23:54:48.280Z,2.35
2022-08-25T23:57:17.061Z,1.92
2022-08-25T23:59:47.430Z,2.30
